createdAt,value
2018-05-31T00:01:24.000Z,100115
2018-05-31T00:02:24.000Z,100117
2018-05-31T00:04:24.000Z,100113
2018-05-31T00:05:24.000Z,100113
2018-05-31T00:07:08.000Z,100115
2018-05-31T00:08:24.000Z,100116
2018-05-31T00:10:24.000Z,100112
2018-05-31T00:11:24.000Z,100114
2018-05-31T00:12:24.000Z,100113
2018-05-31T00:14:24.000Z,100115
2018-05-31T00:16:24.000Z,100113
2018-05-31T00:17:24.000Z,100109
2018-05-31T00:18:24.000Z,100108
2018-05-31T00:20:24.000Z,100109
2018-05-31T00:21:24.000Z,100110
2018-05-31T00:23:24.000Z,100110
2018-05-31T00:24:24.000Z,100110
2018-05-31T00:26:24.000Z,100114
2018-05-31T00:28:24.000Z,100114
2018-05-31T00:30:08.000Z,100113
2018-05-31T00:31:24.000Z,100110
2018-05-31T00:33:24.000Z,100111
2018-05-31T00:35:24.000Z,100112
2018-05-31T00:37:24.000Z,100110
2018-05-31T00:39:24.000Z,100113
2018-05-31T00:41:24.000Z,100113
2018-05-31T00:42:24.000Z,100107
2018-05-31T00:44:08.000Z,100112
2018-05-31T00:45:23.000Z,100113
2018-05-31T00:46:23.000Z,100115
2018-05-31T00:48:19.000Z,100113
2018-05-31T00:50:23.000Z,100118
2018-05-31T00:52:23.000Z,100124
2018-05-31T00:53:23.000Z,100121
2018-05-31T00:55:23.000Z,100122
2018-05-31T00:57:44.000Z,100123
2018-05-31T00:59:44.000Z,100121
2018-05-31T01:00:44.000Z,100116
2018-05-31T01:01:44.000Z,100121
2018-05-31T01:03:44.000Z,100119
2018-05-31T01:05:44.000Z,100122
2018-05-31T01:07:44.000Z,100120
2018-05-31T01:09:44.000Z,100118
2018-05-31T01:11:44.000Z,100119
2018-05-31T01:12:44.000Z,100122
2018-05-31T01:14:44.000Z,100125
2018-05-31T01:16:44.000Z,100118
2018-05-31T01:17:44.000Z,100120
2018-05-31T01:19:44.000Z,100126
2018-05-31T01:21:44.000Z,100127
2018-05-31T01:23:44.000Z,100121
2018-05-31T01:25:13.000Z,100122
2018-05-31T01:26:44.000Z,100119
2018-05-31T01:28:13.000Z,100124
2018-05-31T01:29:44.000Z,100117
2018-05-31T01:31:44.000Z,100120
2018-05-31T01:33:44.000Z,100114
2018-05-31T01:35:29.000Z,100128
2018-05-31T01:36:44.000Z,100122
2018-05-31T01:38:44.000Z,100117
2018-05-31T01:40:44.000Z,100119
2018-05-31T01:42:44.000Z,100114
2018-05-31T01:43:44.000Z,100113
2018-05-31T01:45:44.000Z,100114
2018-05-31T01:46:44.000Z,100109
2018-05-31T01:48:44.000Z,100110
2018-05-31T01:50:44.000Z,100114
2018-05-31T01:51:44.000Z,100112
2018-05-31T01:52:44.000Z,100119
2018-05-31T01:53:44.000Z,100117
2018-05-31T01:55:44.000Z,100119
2018-05-31T01:56:44.000Z,100119
2018-05-31T01:57:44.000Z,100123
2018-05-31T01:59:44.000Z,100125
2018-05-31T02:00:44.000Z,100122
2018-05-31T02:02:44.000Z,100122
2018-05-31T02:03:44.000Z,100122
2018-05-31T02:05:44.000Z,100118
2018-05-31T02:06:44.000Z,100115
2018-05-31T02:08:44.000Z,100113
2018-05-31T02:10:14.000Z,100114
2018-05-31T02:11:44.000Z,100118
2018-05-31T02:12:44.000Z,100119
2018-05-31T02:14:44.000Z,100118
2018-05-31T02:16:44.000Z,100118
2018-05-31T02:18:44.000Z,100118
2018-05-31T02:19:44.000Z,100113
2018-05-31T02:21:44.000Z,100108
2018-05-31T02:23:29.000Z,100106
2018-05-31T02:24:44.000Z,100113
2018-05-31T02:25:44.000Z,100112
2018-05-31T02:27:44.000Z,100109
2018-05-31T02:29:44.000Z,100106
2018-05-31T02:31:44.000Z,100104
2018-05-31T02:33:44.000Z,100102
2018-05-31T02:35:44.000Z,100096
2018-05-31T02:37:44.000Z,100100
2018-05-31T02:39:44.000Z,100100
2018-05-31T02:40:44.000Z,100102
2018-05-31T02:42:44.000Z,100098
2018-05-31T02:44:29.000Z,100100
2018-05-31T02:45:44.000Z,100104
2018-05-31T02:46:44.000Z,100100
2018-05-31T02:48:44.000Z,100093
2018-05-31T02:49:44.000Z,100089
2018-05-31T02:51:44.000Z,100092
2018-05-31T02:53:44.000Z,100087
2018-05-31T02:55:44.000Z,100093
2018-05-31T02:57:44.000Z,100090
2018-05-31T02:59:44.000Z,100093
2018-05-31T03:01:44.000Z,100094
2018-05-31T03:03:44.000Z,100091
2018-05-31T03:04:44.000Z,100089
2018-05-31T03:06:44.000Z,100095
2018-05-31T03:08:44.000Z,100095
2018-05-31T03:10:44.000Z,100095
2018-05-31T03:12:44.000Z,100097
2018-05-31T03:14:44.000Z,100099
2018-05-31T03:16:29.000Z,100104
2018-05-31T03:17:44.000Z,100104
2018-05-31T03:19:44.000Z,100103
2018-05-31T03:20:44.000Z,100106
2018-05-31T03:21:44.000Z,100105
2018-05-31T03:23:29.000Z,100104
2018-05-31T03:24:44.000Z,100097
2018-05-31T03:25:44.000Z,100096
2018-05-31T03:26:44.000Z,100097
2018-05-31T03:27:44.000Z,100101
2018-05-31T03:29:44.000Z,100099
2018-05-31T03:31:44.000Z,100104
2018-05-31T03:33:44.000Z,100100
2018-05-31T03:35:44.000Z,100102
2018-05-31T03:37:44.000Z,100100
2018-05-31T03:38:44.000Z,100095
2018-05-31T03:40:29.000Z,100098
2018-05-31T03:41:44.000Z,100097
2018-05-31T03:42:44.000Z,100097
2018-05-31T03:44:44.000Z,100100
2018-05-31T03:45:44.000Z,100101
2018-05-31T03:47:44.000Z,100101
2018-05-31T03:49:44.000Z,100106
2018-05-31T03:51:44.000Z,100108
2018-05-31T03:53:44.000Z,100118
2018-05-31T03:55:44.000Z,100121
2018-05-31T03:56:44.000Z,100123
2018-05-31T03:58:44.000Z,100127
2018-05-31T03:59:44.000Z,100130
2018-05-31T04:01:29.000Z,100128
2018-05-31T04:02:44.000Z,100124
2018-05-31T04:03:44.000Z,100127
2018-05-31T04:05:44.000Z,100122
2018-05-31T04:06:44.000Z,100129
2018-05-31T04:08:29.000Z,100131
2018-05-31T04:09:44.000Z,100135
2018-05-31T04:11:44.000Z,100136
2018-05-31T04:12:44.000Z,100132
2018-05-31T04:14:44.000Z,100134
2018-05-31T04:16:29.000Z,100140
2018-05-31T04:17:44.000Z,100143
2018-05-31T04:18:44.000Z,100139
2018-05-31T04:20:44.000Z,100140
2018-05-31T04:21:44.000Z,100143
2018-05-31T04:22:44.000Z,100145
2018-05-31T04:24:44.000Z,100147
2018-05-31T04:26:29.000Z,100151
2018-05-31T04:27:44.000Z,100152
2018-05-31T04:28:44.000Z,100152
2018-05-31T04:30:44.000Z,100155
2018-05-31T04:31:44.000Z,100154
2018-05-31T04:33:44.000Z,100151
2018-05-31T04:35:44.000Z,100155
2018-05-31T04:36:44.000Z,100156
2018-05-31T04:38:29.000Z,100158
2018-05-31T04:39:44.000Z,100156
2018-05-31T04:40:44.000Z,100154
2018-05-31T04:42:44.000Z,100159
2018-05-31T04:44:44.000Z,100162
2018-05-31T04:46:44.000Z,100163
2018-05-31T04:48:44.000Z,100161
2018-05-31T04:50:44.000Z,100169
2018-05-31T04:52:44.000Z,100174
2018-05-31T04:54:44.000Z,100173
2018-05-31T04:56:44.000Z,100164
2018-05-31T04:58:44.000Z,100165
2018-05-31T05:00:29.000Z,100160
2018-05-31T05:01:44.000Z,100163
2018-05-31T05:03:44.000Z,100162
2018-05-31T05:04:44.000Z,100164
2018-05-31T05:06:44.000Z,100165
2018-05-31T05:07:44.000Z,100168
2018-05-31T05:08:44.000Z,100163
2018-05-31T05:10:29.000Z,100173
2018-05-31T05:11:44.000Z,100168
2018-05-31T05:12:44.000Z,100173
2018-05-31T05:14:29.000Z,100175
2018-05-31T05:15:44.000Z,100178
2018-05-31T05:16:44.000Z,100170
2018-05-31T05:17:44.000Z,100176
2018-05-31T05:19:44.000Z,100180
2018-05-31T05:20:44.000Z,100175
2018-05-31T05:21:44.000Z,100176
2018-05-31T05:22:44.000Z,100178
2018-05-31T05:24:44.000Z,100176
2018-05-31T05:26:44.000Z,100184
2018-05-31T05:28:44.000Z,100185
2018-05-31T05:30:44.000Z,100187
2018-05-31T05:32:44.000Z,100184
2018-05-31T05:34:44.000Z,100192
2018-05-31T05:35:44.000Z,100186
2018-05-31T05:37:44.000Z,100186
2018-05-31T05:39:44.000Z,100186
2018-05-31T05:41:44.000Z,100186
2018-05-31T05:42:44.000Z,100184
2018-05-31T05:44:44.000Z,100180
2018-05-31T05:46:44.000Z,100179
2018-05-31T05:48:44.000Z,100175
2018-05-31T05:50:29.000Z,100175
2018-05-31T05:51:44.000Z,100174
2018-05-31T05:53:44.000Z,100176
2018-05-31T05:55:44.000Z,100170
2018-05-31T05:57:44.000Z,100176
2018-05-31T05:59:44.000Z,100172
2018-05-31T06:01:44.000Z,100178
2018-05-31T06:02:44.000Z,100167
2018-05-31T06:04:14.000Z,100173
2018-05-31T06:05:44.000Z,100171
2018-05-31T06:07:44.000Z,100169
2018-05-31T06:09:14.000Z,100170
2018-05-31T06:10:44.000Z,100171
2018-05-31T06:12:29.000Z,100167
2018-05-31T06:13:44.000Z,100170
2018-05-31T06:15:44.000Z,100178
2018-05-31T06:16:44.000Z,100184
2018-05-31T06:17:44.000Z,100186
2018-05-31T06:19:44.000Z,100185
2018-05-31T06:21:44.000Z,100187
2018-05-31T06:23:44.000Z,100192
2018-05-31T06:24:44.000Z,100200
2018-05-31T06:26:44.000Z,100195
2018-05-31T06:27:44.000Z,100195
2018-05-31T06:29:29.000Z,100195
2018-05-31T06:30:44.000Z,100195
2018-05-31T06:32:44.000Z,100193
2018-05-31T06:34:44.000Z,100194
2018-05-31T06:36:44.000Z,100195
2018-05-31T06:37:44.000Z,100193
2018-05-31T06:39:44.000Z,100191
2018-05-31T06:41:29.000Z,100190
2018-05-31T06:42:44.000Z,100188
2018-05-31T06:44:44.000Z,100194
2018-05-31T06:45:44.000Z,100195
2018-05-31T06:47:44.000Z,100198
2018-05-31T06:49:44.000Z,100197
2018-05-31T06:50:44.000Z,100201
2018-05-31T06:52:44.000Z,100208
2018-05-31T06:54:44.000Z,100203
2018-05-31T06:55:44.000Z,100201
2018-05-31T06:57:44.000Z,100199
2018-05-31T06:59:44.000Z,100203
2018-05-31T07:01:44.000Z,100210
2018-05-31T07:03:44.000Z,100211
2018-05-31T07:05:44.000Z,100211
2018-05-31T07:07:29.000Z,100213
2018-05-31T07:08:44.000Z,100217
2018-05-31T07:10:29.000Z,100214
2018-05-31T07:11:44.000Z,100217
2018-05-31T07:13:44.000Z,100221
2018-05-31T07:15:44.000Z,100214
2018-05-31T07:17:44.000Z,100215
2018-05-31T07:18:44.000Z,100220
2018-05-31T07:19:44.000Z,100213
2018-05-31T07:21:44.000Z,100215
2018-05-31T07:22:44.000Z,100214
2018-05-31T07:24:44.000Z,100218
2018-05-31T07:26:29.000Z,100215
2018-05-31T07:27:44.000Z,100214
2018-05-31T07:29:44.000Z,100214
2018-05-31T07:31:44.000Z,100215
2018-05-31T07:33:44.000Z,100215
2018-05-31T07:34:44.000Z,100219
2018-05-31T07:35:44.000Z,100214
2018-05-31T07:36:44.000Z,100217
2018-05-31T07:38:29.000Z,100213
2018-05-31T07:39:44.000Z,100216
2018-05-31T07:40:44.000Z,100214
2018-05-31T07:42:29.000Z,100211
2018-05-31T07:43:44.000Z,100213
2018-05-31T07:44:44.000Z,100214
2018-05-31T07:46:44.000Z,100208
2018-05-31T07:48:44.000Z,100213
2018-05-31T07:50:29.000Z,100213
2018-05-31T07:51:44.000Z,100215
2018-05-31T07:52:44.000Z,100212
2018-05-31T07:54:44.000Z,100212
2018-05-31T07:55:44.000Z,100215
2018-05-31T07:57:44.000Z,100214
2018-05-31T07:58:44.000Z,100222
2018-05-31T08:00:44.000Z,100219
2018-05-31T08:01:44.000Z,100214
2018-05-31T08:02:44.000Z,100215
2018-05-31T08:04:29.000Z,100215
2018-05-31T08:05:44.000Z,100213
2018-05-31T08:07:29.000Z,100216
2018-05-31T08:08:44.000Z,100215
2018-05-31T08:09:44.000Z,100207
2018-05-31T08:11:13.000Z,100216
2018-05-31T08:12:44.000Z,100214
2018-05-31T08:14:44.000Z,100204
2018-05-31T08:16:44.000Z,100210
2018-05-31T08:18:44.000Z,100206
2018-05-31T08:19:44.000Z,100214
2018-05-31T08:21:29.000Z,100214
2018-05-31T08:22:44.000Z,100216
2018-05-31T08:23:44.000Z,100213
2018-05-31T08:24:44.000Z,100212
2018-05-31T08:26:44.000Z,100215
2018-05-31T08:28:44.000Z,100215
2018-05-31T08:30:44.000Z,100220
2018-05-31T08:32:44.000Z,100222
2018-05-31T08:33:44.000Z,100224
2018-05-31T08:35:44.000Z,100227
2018-05-31T08:37:44.000Z,100220
2018-05-31T08:38:44.000Z,100222
2018-05-31T08:40:44.000Z,100222
2018-05-31T08:41:44.000Z,100231
2018-05-31T08:43:44.000Z,100228
2018-05-31T08:44:44.000Z,100228
2018-05-31T08:46:29.000Z,100223
2018-05-31T08:47:44.000Z,100227
2018-05-31T08:49:29.000Z,100229
2018-05-31T08:50:44.000Z,100222
2018-05-31T08:52:29.000Z,100223
2018-05-31T08:53:44.000Z,100221
2018-05-31T08:54:44.000Z,100228
2018-05-31T08:55:44.000Z,100220
2018-05-31T08:57:29.000Z,100222
2018-05-31T08:58:44.000Z,100222
2018-05-31T09:00:44.000Z,100225
2018-05-31T09:02:44.000Z,100227
2018-05-31T09:03:44.000Z,100227
2018-05-31T09:05:44.000Z,100228
2018-05-31T09:06:44.000Z,100227
2018-05-31T09:08:44.000Z,100223
2018-05-31T09:10:44.000Z,100224
2018-05-31T09:12:44.000Z,100227
2018-05-31T09:13:44.000Z,100223
2018-05-31T09:14:44.000Z,100231
2018-05-31T09:15:44.000Z,100232
2018-05-31T09:17:44.000Z,100231
2018-05-31T09:19:29.000Z,100233
2018-05-31T09:20:44.000Z,100237
2018-05-31T09:22:44.000Z,100238
2018-05-31T09:23:44.000Z,100235
2018-05-31T09:25:29.000Z,100238
2018-05-31T09:26:44.000Z,100237
2018-05-31T09:28:44.000Z,100236
2018-05-31T09:30:44.000Z,100226
2018-05-31T09:32:44.000Z,100230
2018-05-31T09:34:44.000Z,100229
2018-05-31T09:36:44.000Z,100228
2018-05-31T09:38:44.000Z,100227
2018-05-31T09:40:29.000Z,100226
2018-05-31T09:41:44.000Z,100227
2018-05-31T09:43:44.000Z,100225
2018-05-31T09:45:44.000Z,100222
2018-05-31T09:46:44.000Z,100222
2018-05-31T09:48:29.000Z,100222
2018-05-31T09:49:44.000Z,100223
2018-05-31T09:51:44.000Z,100231
2018-05-31T09:52:44.000Z,100225
2018-05-31T09:54:29.000Z,100229
2018-05-31T09:55:44.000Z,100224
2018-05-31T09:56:44.000Z,100232
2018-05-31T09:58:44.000Z,100221
2018-05-31T10:00:44.000Z,100219
2018-05-31T10:02:44.000Z,100215
2018-05-31T10:03:44.000Z,100220
2018-05-31T10:04:44.000Z,100216
2018-05-31T10:06:44.000Z,100221
2018-05-31T10:08:44.000Z,100220
2018-05-31T10:09:44.000Z,100218
2018-05-31T10:11:44.000Z,100221
2018-05-31T10:13:44.000Z,100210
2018-05-31T10:15:29.000Z,100206
2018-05-31T10:16:44.000Z,100208
2018-05-31T10:17:44.000Z,100203
2018-05-31T10:19:44.000Z,100211
2018-05-31T10:21:44.000Z,100211
2018-05-31T10:22:44.000Z,100210
2018-05-31T10:24:44.000Z,100214
2018-05-31T10:26:44.000Z,100211
2018-05-31T10:28:44.000Z,100213
2018-05-31T10:29:44.000Z,100208
2018-05-31T10:30:44.000Z,100206
2018-05-31T10:32:29.000Z,100205
2018-05-31T10:33:44.000Z,100208
2018-05-31T10:35:44.000Z,100207
2018-05-31T10:36:44.000Z,100213
2018-05-31T10:38:44.000Z,100208
2018-05-31T10:39:44.000Z,100210
2018-05-31T10:41:44.000Z,100205
2018-05-31T10:43:44.000Z,100201
2018-05-31T10:45:44.000Z,100199
2018-05-31T10:47:44.000Z,100191
2018-05-31T10:49:29.000Z,100184
2018-05-31T10:50:44.000Z,100188
2018-05-31T10:51:44.000Z,100186
2018-05-31T10:53:29.000Z,100186
2018-05-31T10:54:44.000Z,100185
2018-05-31T10:55:44.000Z,100186
2018-05-31T10:57:44.000Z,100180
2018-05-31T10:59:44.000Z,100182
2018-05-31T11:01:44.000Z,100173
2018-05-31T11:03:44.000Z,100177
2018-05-31T11:04:44.000Z,100175
2018-05-31T11:06:44.000Z,100179
2018-05-31T11:07:44.000Z,100175
2018-05-31T11:09:29.000Z,100178
2018-05-31T11:10:44.000Z,100171
2018-05-31T11:11:44.000Z,100171
2018-05-31T11:13:44.000Z,100165
2018-05-31T11:15:44.000Z,100166
2018-05-31T11:17:44.000Z,100162
2018-05-31T11:19:44.000Z,100157
2018-05-31T11:20:44.000Z,100153
2018-05-31T11:22:44.000Z,100149
2018-05-31T11:23:44.000Z,100155
2018-05-31T11:24:44.000Z,100155
2018-05-31T11:26:44.000Z,100153
2018-05-31T11:28:44.000Z,100153
2018-05-31T11:29:44.000Z,100157
2018-05-31T11:31:29.000Z,100161
2018-05-31T11:32:44.000Z,100151
2018-05-31T11:33:44.000Z,100152
2018-05-31T11:35:29.000Z,100153
2018-05-31T11:36:44.000Z,100152
2018-05-31T11:38:29.000Z,100153
2018-05-31T11:39:44.000Z,100156
2018-05-31T11:41:44.000Z,100155
2018-05-31T11:42:44.000Z,100158
2018-05-31T11:44:29.000Z,100163
2018-05-31T11:45:44.000Z,100162
2018-05-31T11:46:44.000Z,100161
2018-05-31T11:48:44.000Z,100166
2018-05-31T11:49:44.000Z,100166
2018-05-31T11:51:44.000Z,100168
2018-05-31T11:53:44.000Z,100165
2018-05-31T11:55:29.000Z,100166
2018-05-31T11:56:44.000Z,100159
2018-05-31T11:57:44.000Z,100158
2018-05-31T11:59:44.000Z,100162
2018-05-31T12:00:44.000Z,100164
2018-05-31T12:01:44.000Z,100172
2018-05-31T12:02:44.000Z,100169
2018-05-31T12:04:44.000Z,100171
2018-05-31T12:06:29.000Z,100160
2018-05-31T12:07:44.000Z,100160
2018-05-31T12:08:44.000Z,100160
2018-05-31T12:10:44.000Z,100152
2018-05-31T12:12:29.000Z,100147
2018-05-31T12:13:44.000Z,100143
2018-05-31T12:15:44.000Z,100146
2018-05-31T12:16:44.000Z,100138
2018-05-31T12:18:29.000Z,100136
2018-05-31T12:19:44.000Z,100139
2018-05-31T12:21:44.000Z,100142
2018-05-31T12:23:44.000Z,100142
2018-05-31T12:25:44.000Z,100141
2018-05-31T12:26:44.000Z,100144
2018-05-31T12:27:44.000Z,100141
2018-05-31T12:29:44.000Z,100146
2018-05-31T12:31:44.000Z,100145
2018-05-31T12:33:44.000Z,100145
2018-05-31T12:34:44.000Z,100143
2018-05-31T12:36:44.000Z,100148
2018-05-31T12:37:44.000Z,100142
2018-05-31T12:39:44.000Z,100136
2018-05-31T12:41:29.000Z,100130
2018-05-31T12:42:44.000Z,100132
2018-05-31T12:43:44.000Z,100135
2018-05-31T12:44:44.000Z,100129
2018-05-31T12:45:44.000Z,100132
2018-05-31T12:47:29.000Z,100130
2018-05-31T12:48:44.000Z,100131
2018-05-31T12:49:44.000Z,100131
2018-05-31T12:51:44.000Z,100130
2018-05-31T12:52:44.000Z,100135
2018-05-31T12:54:44.000Z,100146
2018-05-31T12:55:44.000Z,100145
2018-05-31T12:57:44.000Z,100151
2018-05-31T12:58:44.000Z,100157
2018-05-31T13:00:44.000Z,100151
2018-05-31T13:01:44.000Z,100151
2018-05-31T13:03:29.000Z,100146
2018-05-31T13:04:44.000Z,100147
2018-05-31T13:06:44.000Z,100149
2018-05-31T13:08:44.000Z,100145
2018-05-31T13:09:44.000Z,100146
2018-05-31T13:10:44.000Z,100140
2018-05-31T13:11:44.000Z,100137
2018-05-31T13:13:44.000Z,100125
2018-05-31T13:14:44.000Z,100128
2018-05-31T13:16:29.000Z,100134
2018-05-31T13:17:44.000Z,100145
2018-05-31T13:19:44.000Z,100165
2018-05-31T13:20:44.000Z,100176
2018-05-31T13:22:44.000Z,100182
2018-05-31T13:24:29.000Z,100193
2018-05-31T13:25:44.000Z,100190
2018-05-31T13:26:44.000Z,100186
2018-05-31T13:27:44.000Z,100181
2018-05-31T13:28:44.000Z,100180
2018-05-31T13:30:44.000Z,100173
2018-05-31T13:32:44.000Z,100179
2018-05-31T13:34:44.000Z,100185
2018-05-31T13:35:44.000Z,100194
2018-05-31T13:36:44.000Z,100199
2018-05-31T13:38:44.000Z,100211
2018-05-31T13:40:43.000Z,100220
2018-05-31T13:42:43.000Z,100236
2018-05-31T13:44:43.000Z,100246
2018-05-31T13:46:43.000Z,100251
2018-05-31T13:48:43.000Z,100246
2018-05-31T13:50:44.000Z,100250
2018-05-31T13:52:28.000Z,100248
2018-05-31T13:53:43.000Z,100253
2018-05-31T13:54:44.000Z,100253
2018-05-31T13:56:43.000Z,100246
2018-05-31T13:58:28.000Z,100234
2018-05-31T13:59:43.000Z,100229
2018-05-31T14:00:43.000Z,100231
2018-05-31T14:02:44.000Z,100215
2018-05-31T14:04:44.000Z,100205
2018-05-31T14:06:43.000Z,100183
2018-05-31T14:08:44.000Z,100181
2018-05-31T14:10:28.000Z,100174
2018-05-31T14:11:43.000Z,100169
2018-05-31T14:12:44.000Z,100170
2018-05-31T14:14:43.000Z,100163
2018-05-31T14:16:43.000Z,100169
2018-05-31T14:17:43.000Z,100170
2018-05-31T14:19:43.000Z,100170
2018-05-31T14:21:28.000Z,100175
2018-05-31T14:22:43.000Z,100173
2018-05-31T14:23:44.000Z,100174
2018-05-31T14:25:44.000Z,100178
2018-05-31T14:26:44.000Z,100180
2018-05-31T14:28:43.000Z,100168
2018-05-31T14:29:44.000Z,100175
2018-05-31T14:31:44.000Z,100170
2018-05-31T14:32:44.000Z,100171
2018-05-31T14:34:44.000Z,100179
2018-05-31T14:36:43.000Z,100177
2018-05-31T14:38:44.000Z,100171
2018-05-31T14:40:44.000Z,100169
2018-05-31T14:42:44.000Z,100176
2018-05-31T14:43:44.000Z,100176
2018-05-31T14:45:44.000Z,100166
2018-05-31T14:47:44.000Z,100183
2018-05-31T14:49:44.000Z,100183
2018-05-31T14:51:44.000Z,100186
2018-05-31T14:52:44.000Z,100188
2018-05-31T14:54:44.000Z,100189
2018-05-31T14:56:28.000Z,100185
2018-05-31T14:57:44.000Z,100177
2018-05-31T14:59:28.000Z,100182
2018-05-31T15:00:44.000Z,100178
2018-05-31T15:02:44.000Z,100177
2018-05-31T15:04:44.000Z,100172
2018-05-31T15:05:44.000Z,100168
2018-05-31T15:07:44.000Z,100170
2018-05-31T15:08:44.000Z,100168
2018-05-31T15:09:44.000Z,100170
2018-05-31T15:10:44.000Z,100173
2018-05-31T15:12:44.000Z,100170
2018-05-31T15:14:28.000Z,100176
2018-05-31T15:15:44.000Z,100176
2018-05-31T15:17:44.000Z,100178
2018-05-31T15:18:44.000Z,100185
2018-05-31T15:20:44.000Z,100184
2018-05-31T15:22:28.000Z,100188
2018-05-31T15:23:44.000Z,100187
2018-05-31T15:25:28.000Z,100185
2018-05-31T15:26:44.000Z,100184
2018-05-31T15:28:44.000Z,100178
2018-05-31T15:30:28.000Z,100175
2018-05-31T15:31:44.000Z,100169
2018-05-31T15:32:44.000Z,100169
2018-05-31T15:34:44.000Z,100173
2018-05-31T15:36:28.000Z,100167
2018-05-31T15:37:44.000Z,100163
2018-05-31T15:38:44.000Z,100167
2018-05-31T15:40:28.000Z,100168
2018-05-31T15:41:44.000Z,100164
2018-05-31T15:43:44.000Z,100170
2018-05-31T15:44:44.000Z,100165
2018-05-31T15:45:44.000Z,100161
2018-05-31T15:46:44.000Z,100160
2018-05-31T15:48:44.000Z,100160
2018-05-31T15:50:44.000Z,100152
2018-05-31T15:51:44.000Z,100152
2018-05-31T15:53:44.000Z,100148
2018-05-31T15:55:44.000Z,100147
2018-05-31T15:56:44.000Z,100148
2018-05-31T15:57:44.000Z,100140
2018-05-31T15:59:44.000Z,100144
2018-05-31T16:01:44.000Z,100148
2018-05-31T16:03:44.000Z,100145
2018-05-31T16:05:44.000Z,100139
2018-05-31T16:06:44.000Z,100140
2018-05-31T16:07:44.000Z,100141
2018-05-31T16:09:29.000Z,100138
2018-05-31T16:10:44.000Z,100137
2018-05-31T16:11:44.000Z,100138
2018-05-31T16:13:44.000Z,100133
2018-05-31T16:14:44.000Z,100136
2018-05-31T16:15:44.000Z,100133
2018-05-31T16:17:29.000Z,100130
2018-05-31T16:18:44.000Z,100128
2018-05-31T16:20:44.000Z,100132
2018-05-31T16:22:44.000Z,100124
2018-05-31T16:24:29.000Z,100130
2018-05-31T16:25:44.000Z,100132
2018-05-31T16:27:29.000Z,100137
2018-05-31T16:28:44.000Z,100129
2018-05-31T16:29:44.000Z,100130
2018-05-31T16:31:14.000Z,100131
2018-05-31T16:32:44.000Z,100123
2018-05-31T16:34:44.000Z,100127
2018-05-31T16:36:44.000Z,100123
2018-05-31T16:37:44.000Z,100121
2018-05-31T16:39:44.000Z,100114
2018-05-31T16:40:44.000Z,100114
2018-05-31T16:42:44.000Z,100119
2018-05-31T16:43:44.000Z,100118
2018-05-31T16:45:44.000Z,100120
2018-05-31T16:47:29.000Z,100121
2018-05-31T16:48:44.000Z,100127
2018-05-31T16:50:44.000Z,100115
2018-05-31T16:52:44.000Z,100113
2018-05-31T16:53:44.000Z,100120
2018-05-31T16:55:44.000Z,100116
2018-05-31T16:57:44.000Z,100116
2018-05-31T16:58:44.000Z,100118
2018-05-31T17:00:29.000Z,100123
2018-05-31T17:01:44.000Z,100120
2018-05-31T17:03:44.000Z,100123
2018-05-31T17:05:44.000Z,100119
2018-05-31T17:07:44.000Z,100124
2018-05-31T17:08:44.000Z,100127
2018-05-31T17:09:44.000Z,100126
2018-05-31T17:10:44.000Z,100135
2018-05-31T17:11:44.000Z,100135
2018-05-31T17:12:44.000Z,100137
2018-05-31T17:14:44.000Z,100140
2018-05-31T17:16:44.000Z,100135
2018-05-31T17:18:44.000Z,100133
2018-05-31T17:20:44.000Z,100134
2018-05-31T17:22:44.000Z,100123
2018-05-31T17:23:44.000Z,100131
2018-05-31T17:25:44.000Z,100132
2018-05-31T17:26:44.000Z,100128
2018-05-31T17:28:44.000Z,100130
2018-05-31T17:30:44.000Z,100129
2018-05-31T17:31:44.000Z,100130
2018-05-31T17:33:29.000Z,100130
2018-05-31T17:34:44.000Z,100135
2018-05-31T17:36:44.000Z,100137
2018-05-31T17:37:44.000Z,100138
2018-05-31T17:39:44.000Z,100139
2018-05-31T17:41:44.000Z,100138
2018-05-31T17:42:44.000Z,100137
2018-05-31T17:44:29.000Z,100136
2018-05-31T17:45:44.000Z,100136
2018-05-31T17:46:44.000Z,100135
2018-05-31T17:48:44.000Z,100134
2018-05-31T17:50:44.000Z,100137
2018-05-31T17:52:44.000Z,100139
2018-05-31T17:53:44.000Z,100140
2018-05-31T17:54:44.000Z,100142
2018-05-31T17:56:44.000Z,100139
2018-05-31T17:57:44.000Z,100140
2018-05-31T17:59:29.000Z,100146
2018-05-31T18:00:44.000Z,100148
2018-05-31T18:01:44.000Z,100147
2018-05-31T18:03:44.000Z,100146
2018-05-31T18:04:44.000Z,100150
2018-05-31T18:05:44.000Z,100157
2018-05-31T18:06:44.000Z,100157
2018-05-31T18:08:44.000Z,100157
2018-05-31T18:09:44.000Z,100167
2018-05-31T18:11:29.000Z,100165
2018-05-31T18:12:44.000Z,100165
2018-05-31T18:13:44.000Z,100171
2018-05-31T18:14:44.000Z,100176
2018-05-31T18:16:44.000Z,100168
2018-05-31T18:18:29.000Z,100177
2018-05-31T18:19:44.000Z,100179
2018-05-31T18:20:44.000Z,100182
2018-05-31T18:22:44.000Z,100184
2018-05-31T18:24:44.000Z,100194
2018-05-31T18:25:44.000Z,100189
2018-05-31T18:27:29.000Z,100192
2018-05-31T18:28:44.000Z,100193
2018-05-31T18:29:44.000Z,100196
2018-05-31T18:31:44.000Z,100196
2018-05-31T18:32:44.000Z,100189
2018-05-31T18:34:29.000Z,100191
2018-05-31T18:35:44.000Z,100189
2018-05-31T18:37:44.000Z,100186
2018-05-31T18:39:44.000Z,100187
2018-05-31T18:41:29.000Z,100188
2018-05-31T18:42:44.000Z,100189
2018-05-31T18:43:44.000Z,100186
2018-05-31T18:45:44.000Z,100188
2018-05-31T18:46:44.000Z,100186
2018-05-31T18:48:44.000Z,100178
2018-05-31T18:50:29.000Z,100174
2018-05-31T18:51:44.000Z,100169
2018-05-31T18:53:44.000Z,100166
2018-05-31T18:54:44.000Z,100167
2018-05-31T18:56:44.000Z,100167
2018-05-31T18:58:44.000Z,100170
2018-05-31T19:00:29.000Z,100167
2018-05-31T19:01:44.000Z,100166
2018-05-31T19:02:44.000Z,100166
2018-05-31T19:04:44.000Z,100168
2018-05-31T19:06:14.000Z,100171
2018-05-31T19:07:44.000Z,100171
2018-05-31T19:08:44.000Z,100169
2018-05-31T19:10:44.000Z,100168
2018-05-31T19:11:44.000Z,100169
2018-05-31T19:13:44.000Z,100162
2018-05-31T19:15:44.000Z,100166
2018-05-31T19:17:44.000Z,100171
2018-05-31T19:18:44.000Z,100175
2018-05-31T19:19:44.000Z,100170
2018-05-31T19:21:44.000Z,100173
2018-05-31T19:23:44.000Z,100165
2018-05-31T19:24:44.000Z,100170
2018-05-31T19:26:44.000Z,100161
2018-05-31T19:28:44.000Z,100171
2018-05-31T19:29:44.000Z,100174
2018-05-31T19:31:29.000Z,100179
2018-05-31T19:32:44.000Z,100183
2018-05-31T19:34:29.000Z,100190
2018-05-31T19:35:44.000Z,100189
2018-05-31T19:37:29.000Z,100191
2018-05-31T19:38:44.000Z,100191